createdAt,value
2023-04-14T00:01:50.914Z,3.65
2023-04-14T00:04:17.486Z,3.47
2023-04-14T00:06:44.008Z,5.20
2023-04-14T00:09:10.833Z,7.05
2023-04-14T00:11:37.440Z,8.27
2023-04-14T00:14:03.984Z,7.30
2023-04-14T00:16:30.688Z,7.97
2023-04-14T00:18:57.420Z,8.07
2023-04-14T00:21:24.013Z,7.47
2023-04-14T00:23:50.982Z,7.07
2023-04-14T00:26:17.455Z,6.00
2023-04-14T00:28:44.572Z,5.28
2023-04-14T00:31:11.705Z,4.97
2023-04-14T00:33:39.001Z,4.60
2023-04-14T00:36:06.295Z,3.95
2023-04-14T00:38:32.982Z,4.40
2023-04-14T00:40:59.531Z,5.30
2023-04-14T00:43:26.134Z,5.70
2023-04-14T00:45:53.269Z,5.47
2023-04-14T00:48:20.546Z,5.05
2023-04-14T00:50:47.496Z,4.50
2023-04-14T00:53:14.382Z,4.45
2023-04-14T00:55:41.522Z,4.97
2023-04-14T00:58:09.615Z,5.18
2023-04-14T01:00:36.287Z,4.80
2023-04-14T01:03:03.238Z,5.55
2023-04-14T01:05:29.956Z,5.38
2023-04-14T01:07:57.250Z,5.82
2023-04-14T01:10:28.292Z,6.88
2023-04-14T01:13:06.032Z,5.43
2023-04-14T01:15:39.058Z,5.72
2023-04-14T01:18:26.531Z,5.70
2023-04-14T01:20:56.618Z,5.47
2023-04-14T01:23:26.491Z,5.65
2023-04-14T01:26:11.825Z,6.45
2023-04-14T01:28:47.814Z,5.93
2023-04-14T01:31:17.545Z,6.32
2023-04-14T01:33:44.550Z,5.35
2023-04-14T01:36:14.171Z,5.57
2023-04-14T01:38:41.152Z,5.28
2023-04-14T01:41:09.462Z,5.57
2023-04-14T01:43:42.264Z,5.72
2023-04-14T01:46:13.545Z,4.88
2023-04-14T01:48:44.299Z,5.30
2023-04-14T01:51:12.173Z,5.43
2023-04-14T01:53:40.241Z,5.22
2023-04-14T01:56:08.778Z,5.22
2023-04-14T01:58:36.541Z,6.78
2023-04-14T02:03:44.888Z,6.18
2023-04-14T02:06:13.017Z,4.90
2023-04-14T02:08:41.520Z,5.07
2023-04-14T02:11:08.727Z,6.15
2023-04-14T02:13:36.721Z,5.88
2023-04-14T02:16:05.649Z,5.03
2023-04-14T02:18:33.661Z,4.88
2023-04-14T02:21:01.357Z,4.57
2023-04-14T02:23:28.740Z,4.38
2023-04-14T02:25:57.233Z,4.35
2023-04-14T02:28:27.960Z,3.85
2023-04-14T02:30:56.935Z,3.70
2023-04-14T02:33:27.429Z,3.10
2023-04-14T02:36:14.852Z,3.47
2023-04-14T02:39:01.123Z,3.53
2023-04-14T02:41:28.777Z,3.33
2023-04-14T02:44:10.312Z,4.20
2023-04-14T02:46:42.088Z,4.07
2023-04-14T02:49:11.716Z,4.53
2023-04-14T02:51:40.868Z,4.75
2023-04-14T02:54:07.482Z,5.18
2023-04-14T02:56:40.999Z,4.40
2023-04-14T02:59:08.156Z,4.45
2023-04-14T03:01:41.055Z,5.55
2023-04-14T03:04:08.304Z,4.38
2023-04-14T03:06:38.949Z,5.38
2023-04-14T03:09:06.685Z,4.90
2023-04-14T03:11:35.582Z,6.95
2023-04-14T03:14:03.265Z,5.65
2023-04-14T03:16:30.326Z,4.50
2023-04-14T03:18:58.343Z,5.85
2023-04-14T03:21:26.583Z,4.32
2023-04-14T03:23:57.228Z,5.93
2023-04-14T03:26:25.192Z,4.93
2023-04-14T03:28:53.540Z,5.60
2023-04-14T03:31:21.242Z,4.63
2023-04-14T03:33:57.145Z,5.10
2023-04-14T03:36:29.662Z,4.90
2023-04-14T03:38:59.555Z,5.25
2023-04-14T03:41:27.697Z,4.78
2023-04-14T03:43:59.174Z,5.45
2023-04-14T03:46:28.600Z,5.05
2023-04-14T03:48:56.838Z,5.75
2023-04-14T03:51:27.511Z,5.22
2023-04-14T03:53:58.127Z,5.43
2023-04-14T03:56:25.931Z,5.07
2023-04-14T03:58:54.999Z,5.60
2023-04-14T04:01:26.047Z,5.15
2023-04-14T04:03:54.352Z,4.90
2023-04-14T04:06:23.317Z,5.55
2023-04-14T04:08:50.883Z,5.18
2023-04-14T04:11:21.084Z,5.63
2023-04-14T04:13:51.853Z,4.85
2023-04-14T04:16:20.544Z,4.60
2023-04-14T04:18:49.172Z,4.72
2023-04-14T04:21:20.146Z,4.75
2023-04-14T04:23:52.710Z,5.40
2023-04-14T04:26:19.522Z,5.60
2023-04-14T04:28:48.746Z,5.07
2023-04-14T04:31:16.558Z,5.40
2023-04-14T04:33:46.701Z,5.15
2023-04-14T04:36:14.409Z,5.05
2023-04-14T04:38:43.108Z,4.40
2023-04-14T04:41:29.237Z,4.57
2023-04-14T04:43:59.498Z,4.43
2023-04-14T04:46:44.963Z,10.63
2023-04-14T04:49:14.262Z,9.55
2023-04-14T04:51:40.787Z,8.23
2023-04-14T04:54:07.312Z,6.03
2023-04-14T04:56:34.579Z,4.93
2023-04-14T04:59:02.111Z,4.60
2023-04-14T05:01:28.984Z,4.85
2023-04-14T05:03:55.877Z,4.78
2023-04-14T05:06:22.821Z,4.70
2023-04-14T05:08:53.323Z,4.70
2023-04-14T05:11:20.433Z,5.32
2023-04-14T05:13:46.938Z,6.35
2023-04-14T05:16:14.255Z,6.13
2023-04-14T05:18:41.464Z,4.82
2023-04-14T05:21:13.143Z,4.30
2023-04-14T05:23:40.739Z,4.50
2023-04-14T05:26:22.394Z,4.75
2023-04-14T05:28:54.082Z,4.03
2023-04-14T05:31:20.849Z,3.88
2023-04-14T05:33:47.453Z,3.50
2023-04-14T05:36:13.951Z,4.00
2023-04-14T05:38:40.716Z,3.40
2023-04-14T05:41:07.764Z,3.30
2023-04-14T05:43:34.409Z,3.75
2023-04-14T05:46:01.848Z,4.00
2023-04-14T05:48:30.590Z,4.65
2023-04-14T05:50:58.270Z,5.40
2023-04-14T05:53:25.040Z,5.63
2023-04-14T05:55:52.138Z,6.03
2023-04-14T05:58:18.634Z,5.78
2023-04-14T06:00:44.980Z,6.35
2023-04-14T06:03:11.753Z,5.28
2023-04-14T06:05:38.297Z,5.15
2023-04-14T06:08:05.134Z,5.40
2023-04-14T06:10:32.636Z,4.57
2023-04-14T06:12:58.999Z,4.53
2023-04-14T06:15:28.446Z,4.80
2023-04-14T06:17:55.269Z,4.75
2023-04-14T06:20:21.991Z,4.78
2023-04-14T06:22:48.680Z,5.10
2023-04-14T06:25:15.512Z,5.50
2023-04-14T06:27:42.124Z,5.63
2023-04-14T06:30:08.928Z,5.13
2023-04-14T06:32:35.548Z,5.60
2023-04-14T06:35:04.851Z,5.07
2023-04-14T06:37:32.301Z,5.13
2023-04-14T06:39:58.732Z,5.68
2023-04-14T06:42:25.866Z,5.38
2023-04-14T06:44:52.732Z,6.10
2023-04-14T06:47:21.118Z,5.60
2023-04-14T06:49:47.857Z,5.15
2023-04-14T06:52:14.487Z,5.10
2023-04-14T06:54:42.826Z,6.03
2023-04-14T06:57:09.380Z,4.97
2023-04-14T06:59:36.318Z,4.60
2023-04-14T07:02:02.816Z,6.00
2023-04-14T07:04:29.791Z,7.18
2023-04-14T07:07:00.804Z,9.90
2023-04-14T07:09:27.719Z,10.00
2023-04-14T07:11:54.615Z,12.70
2023-04-14T07:14:21.137Z,13.10
2023-04-14T07:16:48.118Z,13.98
2023-04-14T07:19:15.658Z,14.07
2023-04-14T07:21:42.554Z,14.80
2023-04-14T07:24:09.747Z,14.63
2023-04-14T07:26:37.700Z,15.68
2023-04-14T07:29:04.466Z,17.75
2023-04-14T07:31:35.655Z,17.33
2023-04-14T07:34:02.269Z,19.25
2023-04-14T07:36:30.263Z,20.38
2023-04-14T07:38:56.931Z,21.33
2023-04-14T07:41:24.200Z,22.73
2023-04-14T07:43:50.971Z,23.23
2023-04-14T07:46:17.514Z,26.20
2023-04-14T07:48:44.704Z,27.05
2023-04-14T07:51:12.124Z,26.25
2023-04-14T07:53:43.446Z,31.75
2023-04-14T07:56:10.742Z,24.15
2023-04-14T07:58:37.427Z,23.45
2023-04-14T08:01:07.181Z,22.77
2023-04-14T08:03:34.079Z,23.10
2023-04-14T08:06:01.362Z,21.85
2023-04-14T08:08:28.249Z,21.00
2023-04-14T08:10:56.360Z,21.05
2023-04-14T08:13:22.889Z,20.83
2023-04-14T08:15:49.945Z,20.75
2023-04-14T08:18:16.611Z,19.25
2023-04-14T08:20:43.174Z,17.27
2023-04-14T08:23:09.839Z,18.98
2023-04-14T08:25:36.513Z,16.83
2023-04-14T08:28:03.210Z,16.73
2023-04-14T08:30:30.292Z,16.77
2023-04-14T08:32:59.021Z,15.10
2023-04-14T08:35:35.720Z,14.13
2023-04-14T08:38:03.310Z,14.55
2023-04-14T08:40:38.334Z,13.95
2023-04-14T08:43:08.136Z,12.07
2023-04-14T08:45:34.992Z,11.68
2023-04-14T08:48:06.004Z,12.15
2023-04-14T08:50:35.594Z,12.70
2023-04-14T08:53:05.840Z,12.65
2023-04-14T08:55:32.527Z,12.52
2023-04-14T08:58:00.795Z,12.35
2023-04-14T09:00:27.252Z,12.30
2023-04-14T09:02:54.438Z,13.02
2023-04-14T09:05:22.005Z,13.60
2023-04-14T09:07:48.570Z,11.98
2023-04-14T09:10:15.648Z,11.65
2023-04-14T09:12:42.558Z,11.45
2023-04-14T09:15:09.711Z,11.18
2023-04-14T09:17:36.989Z,12.00
2023-04-14T09:20:36.525Z,13.40
2023-04-14T09:22:53.481Z,10.77
2023-04-14T09:25:21.028Z,12.60
2023-04-14T09:27:48.872Z,10.32
2023-04-14T09:30:18.322Z,9.73
2023-04-14T09:32:45.171Z,9.57
2023-04-14T09:35:14.385Z,11.07
2023-04-14T09:37:44.766Z,9.98
2023-04-14T09:40:12.054Z,11.07
2023-04-14T09:42:40.427Z,8.05
2023-04-14T09:45:08.879Z,9.32
2023-04-14T09:47:35.998Z,9.18
2023-04-14T09:50:04.355Z,9.00
2023-04-14T09:52:37.459Z,9.48
2023-04-14T09:57:30.652Z,7.93
2023-04-14T09:59:58.732Z,8.32
2023-04-14T10:02:25.933Z,9.10
2023-04-14T10:05:06.010Z,9.10
2023-04-14T10:07:33.598Z,7.55
2023-04-14T10:10:05.609Z,7.03
2023-04-14T10:12:32.832Z,5.78
2023-04-14T10:15:00.633Z,7.75
2023-04-14T10:17:29.581Z,8.38
2023-04-14T10:19:57.553Z,6.43
2023-04-14T10:22:27.737Z,5.03
2023-04-14T10:24:54.436Z,4.07
2023-04-14T10:27:21.463Z,5.05
2023-04-14T10:29:48.390Z,5.53
2023-04-14T10:32:19.033Z,8.88
2023-04-14T10:35:05.798Z,6.80
2023-04-14T10:37:35.217Z,8.20
2023-04-14T10:40:05.508Z,8.85
2023-04-14T10:42:50.757Z,9.63
2023-04-14T10:45:17.236Z,10.15
2023-04-14T10:47:45.589Z,7.38
2023-04-14T10:50:18.735Z,6.40
2023-04-14T10:52:56.147Z,8.23
2023-04-14T10:55:24.084Z,11.27
2023-04-14T10:57:51.322Z,9.40
2023-04-14T11:00:24.297Z,8.20
2023-04-14T11:02:54.950Z,10.98
2023-04-14T11:05:22.578Z,7.60
2023-04-14T11:07:51.703Z,8.45
2023-04-14T11:10:21.970Z,9.27
2023-04-14T11:12:49.808Z,7.47
2023-04-14T11:15:19.165Z,7.90
2023-04-14T11:17:45.571Z,6.10
2023-04-14T11:20:18.193Z,4.03
2023-04-14T11:22:48.389Z,4.50
2023-04-14T11:25:16.594Z,4.85
2023-04-14T11:27:43.803Z,3.40
2023-04-14T11:30:14.738Z,3.63
2023-04-14T11:32:51.891Z,6.18
2023-04-14T11:35:19.172Z,6.28
2023-04-14T11:37:48.649Z,3.92
2023-04-14T11:40:16.068Z,3.90
2023-04-14T11:42:49.219Z,3.90
2023-04-14T11:45:15.978Z,3.33
2023-04-14T11:48:02.096Z,3.38
2023-04-14T11:50:30.231Z,2.72
2023-04-14T11:52:59.540Z,3.97
2023-04-14T11:55:27.127Z,4.82
2023-04-14T11:57:54.278Z,5.25
2023-04-14T12:00:21.079Z,3.55
2023-04-14T12:02:47.880Z,3.60
2023-04-14T12:05:19.031Z,3.35
2023-04-14T12:07:46.007Z,3.50
2023-04-14T12:10:12.566Z,3.22
2023-04-14T12:12:39.168Z,3.20
2023-04-14T12:15:06.115Z,3.42
2023-04-14T12:17:32.799Z,3.72
2023-04-14T12:19:59.350Z,3.28
2023-04-14T12:22:29.306Z,4.10
2023-04-14T12:24:56.670Z,5.15
2023-04-14T12:27:24.739Z,2.90
2023-04-14T12:29:52.008Z,2.85
2023-04-14T12:32:18.663Z,9.88
2023-04-14T12:34:52.759Z,2.97
2023-04-14T12:37:23.595Z,3.00
2023-04-14T12:39:57.369Z,3.17
2023-04-14T12:42:25.243Z,2.90
2023-04-14T12:44:54.648Z,2.72
2023-04-14T12:47:29.052Z,2.90
2023-04-14T12:49:58.616Z,5.18
2023-04-14T12:52:38.561Z,2.63
2023-04-14T12:55:06.287Z,3.20
2023-04-14T12:57:33.547Z,2.47
2023-04-14T13:00:01.152Z,2.70
2023-04-14T13:02:30.875Z,2.95
2023-04-14T13:04:57.663Z,2.70
2023-04-14T13:07:24.273Z,2.75
2023-04-14T13:09:51.804Z,2.92
2023-04-14T13:12:18.599Z,2.70
2023-04-14T13:14:45.121Z,2.50
2023-04-14T13:17:11.843Z,2.67
2023-04-14T13:19:38.482Z,2.63
2023-04-14T13:22:06.239Z,2.40
2023-04-14T13:24:32.789Z,2.72
2023-04-14T13:26:59.347Z,2.53
2023-04-14T13:29:26.111Z,2.40
2023-04-14T13:31:52.733Z,2.38
2023-04-14T13:34:19.448Z,2.22
2023-04-14T13:36:45.977Z,2.28
2023-04-14T13:39:12.362Z,2.03
2023-04-14T13:41:38.978Z,2.10
2023-04-14T13:44:05.656Z,2.40
2023-04-14T13:46:40.276Z,2.60
2023-04-14T13:49:07.557Z,2.30
2023-04-14T13:51:34.456Z,1.73
2023-04-14T13:54:00.961Z,2.20
2023-04-14T13:56:27.665Z,2.25
2023-04-14T13:58:55.753Z,1.98
2023-04-14T14:01:22.480Z,2.40
2023-04-14T14:03:50.637Z,2.47
2023-04-14T14:06:18.882Z,2.40
2023-04-14T14:08:46.364Z,2.20
2023-04-14T14:11:14.246Z,1.65
2023-04-14T14:13:40.783Z,2.53
2023-04-14T14:16:08.316Z,4.90
2023-04-14T14:18:35.859Z,2.90
2023-04-14T14:21:04.211Z,1.67
2023-04-14T14:23:31.228Z,2.25
2023-04-14T14:25:57.897Z,1.65
2023-04-14T14:28:24.259Z,1.90
2023-04-14T14:30:50.831Z,2.00
2023-04-14T14:33:17.542Z,1.60
2023-04-14T14:35:44.321Z,1.80
2023-04-14T14:38:11.059Z,1.63
2023-04-14T14:40:38.102Z,1.77
2023-04-14T14:43:05.109Z,1.92
2023-04-14T14:45:32.354Z,2.03
2023-04-14T14:47:59.645Z,1.90
2023-04-14T14:50:26.206Z,1.77
2023-04-14T14:52:52.824Z,1.50
2023-04-14T14:55:19.386Z,1.60
2023-04-14T14:57:45.778Z,1.98
2023-04-14T15:00:12.371Z,1.98
2023-04-14T15:02:39.352Z,1.60
2023-04-14T15:05:08.409Z,1.33
2023-04-14T15:07:35.078Z,1.30
2023-04-14T15:10:04.701Z,1.42
2023-04-14T15:12:32.156Z,1.30
2023-04-14T15:14:58.948Z,1.73
2023-04-14T15:17:25.500Z,1.65
2023-04-14T15:19:52.720Z,1.70
2023-04-14T15:22:19.281Z,1.80
2023-04-14T15:24:46.091Z,1.50
2023-04-14T15:27:12.641Z,1.65
2023-04-14T15:29:39.254Z,1.50
2023-04-14T15:32:05.789Z,2.67
2023-04-14T15:34:32.210Z,1.50
2023-04-14T15:36:58.788Z,1.30
2023-04-14T15:39:25.162Z,1.67
2023-04-14T15:41:52.045Z,1.60
2023-04-14T15:44:18.784Z,1.50
2023-04-14T15:46:46.913Z,1.58
2023-04-14T15:49:13.459Z,1.35
2023-04-14T15:51:40.045Z,1.70
2023-04-14T15:54:06.842Z,1.95
2023-04-14T15:56:33.235Z,1.80
2023-04-14T15:58:59.665Z,1.50
2023-04-14T16:01:26.466Z,4.63
2023-04-14T16:03:53.269Z,1.95
2023-04-14T16:06:20.689Z,1.75
2023-04-14T16:08:47.245Z,1.45
2023-04-14T16:11:14.798Z,1.33
2023-04-14T16:13:41.421Z,1.42
2023-04-14T16:16:08.271Z,2.75
2023-04-14T16:18:36.637Z,1.30
2023-04-14T16:21:03.021Z,1.40
2023-04-14T16:23:29.813Z,1.40
2023-04-14T16:25:58.294Z,1.40
2023-04-14T16:28:27.473Z,1.67
2023-04-14T16:30:54.031Z,1.40
2023-04-14T16:33:20.697Z,1.48
2023-04-14T16:35:47.689Z,1.52
2023-04-14T16:38:14.422Z,1.50
2023-04-14T16:40:41.063Z,1.83
2023-04-14T16:43:07.546Z,1.27
2023-04-14T16:45:34.703Z,1.52
2023-04-14T16:48:02.617Z,1.45
2023-04-14T16:50:29.636Z,1.40
2023-04-14T16:52:56.817Z,2.65
2023-04-14T16:55:23.627Z,1.60
2023-04-14T16:57:51.707Z,1.77
2023-04-14T17:00:19.959Z,2.00
2023-04-14T17:02:46.841Z,1.20
2023-04-14T17:05:16.334Z,1.50
2023-04-14T17:07:43.057Z,1.30
2023-04-14T17:10:09.961Z,1.40
2023-04-14T17:12:37.562Z,2.50
2023-04-14T17:15:04.510Z,3.95
2023-04-14T17:17:32.416Z,4.10
2023-04-14T17:19:59.587Z,5.00
2023-04-14T17:22:27.092Z,3.92
2023-04-14T17:24:54.638Z,3.13
2023-04-14T17:27:21.614Z,2.40
2023-04-14T17:29:48.493Z,1.40
2023-04-14T17:32:15.198Z,1.20
2023-04-14T17:34:41.769Z,1.30
2023-04-14T17:37:08.927Z,1.55
2023-04-14T17:39:35.274Z,1.42
2023-04-14T17:42:02.076Z,1.63
2023-04-14T17:44:31.374Z,2.25
2023-04-14T17:47:01.084Z,1.30
2023-04-14T17:49:30.506Z,1.38
2023-04-14T17:51:57.208Z,1.13
2023-04-14T17:54:23.894Z,5.47
2023-04-14T17:56:50.550Z,2.47
2023-04-14T17:59:17.767Z,1.60
2023-04-14T18:01:44.404Z,1.45
2023-04-14T18:04:11.053Z,1.48
2023-04-14T18:06:37.484Z,1.98
2023-04-14T18:09:04.139Z,1.30
2023-04-14T18:11:31.540Z,1.50
2023-04-14T18:13:58.499Z,1.63
2023-04-14T18:16:25.053Z,1.50
2023-04-14T18:18:51.657Z,2.47
2023-04-14T18:21:21.107Z,2.90
2023-04-14T18:24:47.820Z,6.38
2023-04-14T18:26:33.903Z,3.10
2023-04-14T18:29:01.044Z,2.88
2023-04-14T18:31:27.814Z,3.38
2023-04-14T18:33:54.568Z,3.55
2023-04-14T18:36:21.254Z,4.32
2023-04-14T18:38:47.637Z,3.25
2023-04-14T18:41:14.318Z,3.50
2023-04-14T18:43:40.696Z,4.15
2023-04-14T18:46:08.456Z,4.38
2023-04-14T18:48:35.108Z,7.90
2023-04-14T18:51:04.141Z,7.15
2023-04-14T18:53:31.769Z,5.57
2023-04-14T18:55:58.331Z,4.65
2023-04-14T18:58:25.346Z,4.10
2023-04-14T19:00:51.858Z,3.10
2023-04-14T19:03:18.746Z,3.13
2023-04-14T19:05:45.365Z,3.83
2023-04-14T19:08:12.087Z,3.10
2023-04-14T19:10:39.705Z,3.40
2023-04-14T19:13:06.206Z,4.30
2023-04-14T19:15:32.825Z,3.50
2023-04-14T19:17:59.415Z,3.70
2023-04-14T19:20:26.865Z,4.35
2023-04-14T19:22:53.421Z,4.28
2023-04-14T19:25:20.419Z,4.28
2023-04-14T19:27:47.081Z,3.97
2023-04-14T19:30:14.077Z,2.90
2023-04-14T19:32:42.273Z,2.47
2023-04-14T19:35:09.193Z,2.35
2023-04-14T19:37:36.259Z,2.10
2023-04-14T19:40:06.070Z,2.33
2023-04-14T19:42:32.825Z,2.15
2023-04-14T19:44:59.215Z,2.30
2023-04-14T19:47:25.836Z,2.30
2023-04-14T19:49:53.484Z,2.30
2023-04-14T19:52:20.257Z,2.40
2023-04-14T19:54:46.792Z,2.08
2023-04-14T19:57:14.138Z,2.35
2023-04-14T19:59:40.666Z,2.75
2023-04-14T20:02:10.552Z,2.65
2023-04-14T20:04:38.103Z,3.03
2023-04-14T20:07:05.108Z,3.13
2023-04-14T20:09:31.761Z,3.80
2023-04-14T20:12:00.469Z,3.58
2023-04-14T20:14:27.997Z,3.53
2023-04-14T20:16:54.813Z,3.38
2023-04-14T20:19:21.282Z,2.67
2023-04-14T20:21:48.766Z,2.72
2023-04-14T20:24:15.891Z,2.90
2023-04-14T20:26:43.898Z,2.70
2023-04-14T20:29:10.586Z,2.70
2023-04-14T20:31:37.572Z,2.33
2023-04-14T20:34:04.844Z,2.17
2023-04-14T20:36:35.574Z,2.05
2023-04-14T20:39:04.718Z,2.70
2023-04-14T20:41:31.451Z,2.75
2023-04-14T20:43:57.827Z,2.95
2023-04-14T20:46:25.360Z,3.55
2023-04-14T20:48:52.220Z,3.03
2023-04-14T20:51:19.255Z,2.90
2023-04-14T20:53:46.004Z,3.28
2023-04-14T20:56:12.690Z,4.00
2023-04-14T20:58:39.603Z,3.15
2023-04-14T21:01:06.450Z,3.45
2023-04-14T21:03:34.789Z,3.30
2023-04-14T21:06:01.682Z,3.22
2023-04-14T21:08:29.624Z,3.25
2023-04-14T21:11:02.169Z,3.65
2023-04-14T21:15:28.848Z,4.00
2023-04-14T21:16:30.178Z,3.17
2023-04-14T21:18:57.950Z,3.45
2023-04-14T21:21:27.130Z,3.22
2023-04-14T21:23:53.489Z,3.67
2023-04-14T21:26:20.012Z,3.00
2023-04-14T21:28:47.051Z,3.13
2023-04-14T21:31:13.440Z,3.80
2023-04-14T21:33:41.885Z,4.18
2023-04-14T21:36:09.874Z,3.50
2023-04-14T21:38:39.350Z,3.47
2023-04-14T21:41:06.441Z,3.70
2023-04-14T21:43:32.844Z,3.90
2023-04-14T21:45:59.459Z,4.32
2023-04-14T21:48:26.245Z,3.05
2023-04-14T21:50:52.780Z,3.53
2023-04-14T21:53:21.615Z,3.15
2023-04-14T21:55:58.968Z,3.10
2023-04-14T21:58:35.305Z,3.03
2023-04-14T22:01:01.928Z,3.10
2023-04-14T22:03:28.568Z,3.13
2023-04-14T22:05:55.479Z,2.80
2023-04-14T22:08:24.013Z,3.60
2023-04-14T22:10:50.481Z,3.55
2023-04-14T22:13:16.856Z,2.95
2023-04-14T22:15:43.545Z,3.22
2023-04-14T22:18:11.196Z,3.10
2023-04-14T22:20:38.313Z,3.38
2023-04-14T22:23:05.309Z,3.33
2023-04-14T22:25:32.042Z,3.58
2023-04-14T22:27:58.392Z,4.78
2023-04-14T22:30:24.894Z,5.30
2023-04-14T22:32:53.703Z,5.63
2023-04-14T22:35:20.157Z,5.60
2023-04-14T22:37:46.838Z,5.55
2023-04-14T22:40:13.654Z,6.63
2023-04-14T22:42:40.220Z,4.57
2023-04-14T22:45:07.565Z,3.67
2023-04-14T22:47:34.123Z,3.50
2023-04-14T22:50:01.431Z,3.42
2023-04-14T22:52:27.973Z,3.10
2023-04-14T22:54:54.361Z,3.60
2023-04-14T22:57:21.401Z,3.65
2023-04-14T22:59:48.194Z,3.97
2023-04-14T23:02:16.739Z,3.70
2023-04-14T23:04:43.801Z,3.80
2023-04-14T23:07:12.660Z,3.65
2023-04-14T23:09:40.047Z,3.58
2023-04-14T23:12:06.638Z,3.63
2023-04-14T23:14:33.437Z,4.30
2023-04-14T23:17:01.197Z,3.97
2023-04-14T23:19:28.750Z,3.80
2023-04-14T23:21:55.271Z,3.58
2023-04-14T23:24:22.596Z,3.33
2023-04-14T23:26:49.130Z,3.10
2023-04-14T23:29:15.706Z,3.47
2023-04-14T23:31:42.339Z,3.60
2023-04-14T23:34:11.138Z,3.97
2023-04-14T23:36:37.928Z,4.30
2023-04-14T23:39:05.015Z,4.18
2023-04-14T23:41:31.419Z,3.85
2023-04-14T23:43:57.966Z,3.50
2023-04-14T23:46:24.848Z,4.40
2023-04-14T23:48:51.665Z,3.70
2023-04-14T23:51:22.449Z,4.72
2023-04-14T23:53:50.660Z,4.72
2023-04-14T23:56:17.453Z,4.82
2023-04-14T23:58:43.899Z,4.43
